Time;durP1;ratioP1;P1;durP2;ratioP2;P2;SDS_P1;SDS_P2;PMS_P1;PMS_P2;Temp;Humidity;BMP_temperature;BMP_pressure;BME280_temperature;BME280_humidity;BME280_pressure;Samples;Min_cycle;Max_cycle;Signal;HPM_P1;HPM_P2
2022/03/19 00:00:39;;;;;;;5.60;1.70;;;2.70;99.90;;;;;;6240760;28;20273;-74
2022/03/19 00:03:47;;;;;;;1.70;1.60;;;2.70;99.90;;;;;;6239712;28;20295;-74
2022/03/19 00:06:52;;;;;;;2.93;1.40;;;2.70;99.90;;;;;;6239977;28;20276;-74
2022/03/19 00:09:58;;;;;;;1.63;1.53;;;2.70;99.90;;;;;;6240027;28;20615;-74
2022/03/19 00:13:03;;;;;;;1.40;1.30;;;2.60;99.90;;;;;;6239433;28;20308;-74
2022/03/19 00:16:08;;;;;;;2.30;1.60;;;2.60;99.90;;;;;;6238483;28;20278;-74
2022/03/19 00:19:15;;;;;;;1.97;1.57;;;2.60;99.90;;;;;;6239699;28;20294;-74
2022/03/19 00:22:21;;;;;;;2.40;1.83;;;2.40;99.90;;;;;;6239761;28;20300;-74
2022/03/19 00:25:26;;;;;;;1.70;1.60;;;2.40;99.90;;;;;;6239491;28;20279;-74
2022/03/19 00:28:32;;;;;;;4.80;1.80;;;2.40;99.90;;;;;;6239424;28;20439;-74
2022/03/19 00:31:37;;;;;;;1.50;1.47;;;2.40;99.90;;;;;;6239993;28;20279;-73
2022/03/19 00:34:44;;;;;;;1.93;1.60;;;2.30;99.90;;;;;;6239345;28;20298;-74
2022/03/19 00:37:51;;;;;;;1.83;1.70;;;2.40;99.90;;;;;;6238775;28;20294;-74
2022/03/19 00:40:57;;;;;;;7.00;2.07;;;2.30;99.90;;;;;;6239101;28;20275;-73
2022/03/19 00:44:02;;;;;;;1.90;1.53;;;2.30;99.90;;;;;;6238701;28;20304;-74
2022/03/19 00:47:09;;;;;;;2.20;1.77;;;2.30;99.90;;;;;;6239065;28;20273;-74
2022/03/19 00:50:16;;;;;;;4.77;1.57;;;2.20;99.90;;;;;;6239264;28;20286;-73
2022/03/19 00:53:22;;;;;;;1.50;1.50;;;2.20;99.90;;;;;;6238646;28;20321;-73
2022/03/19 00:56:28;;;;;;;4.57;1.60;;;2.30;99.90;;;;;;6238976;28;20306;-74
2022/03/19 00:59:33;;;;;;;1.40;1.40;;;2.20;99.90;;;;;;6238784;28;20300;-74
2022/03/19 01:02:40;;;;;;;1.60;1.50;;;2.20;99.90;;;;;;6238383;28;20297;-73
2022/03/19 01:05:48;;;;;;;3.43;1.37;;;2.10;99.90;;;;;;6238485;28;20281;-74
2022/03/19 01:08:53;;;;;;;2.73;1.63;;;2.10;99.90;;;;;;6225671;28;20309;-74
2022/03/19 01:11:58;;;;;;;1.97;1.80;;;2.10;99.90;;;;;;6193971;28;20562;-73
2022/03/19 01:15:04;;;;;;;2.30;1.63;;;2.10;99.90;;;;;;6189319;28;20281;-73
2022/03/19 01:18:13;;;;;;;3.37;1.60;;;2.00;99.90;;;;;;6189924;28;20299;-74
2022/03/19 01:21:20;;;;;;;1.50;1.50;;;2.00;99.90;;;;;;6189753;28;20544;-73
2022/03/19 01:24:26;;;;;;;1.70;1.60;;;1.90;99.90;;;;;;6189363;28;20304;-74
2022/03/19 01:27:32;;;;;;;4.77;1.70;;;1.90;99.90;;;;;;6189051;28;20297;-74
2022/03/19 01:30:37;;;;;;;2.07;1.63;;;1.90;99.90;;;;;;6189716;28;20274;-74
2022/03/19 01:33:43;;;;;;;1.70;1.60;;;1.90;99.90;;;;;;6189452;28;20301;-73
2022/03/19 01:36:49;;;;;;;1.40;1.40;;;1.90;99.90;;;;;;6189156;28;20269;-73
2022/03/19 01:39:55;;;;;;;3.23;1.50;;;1.90;99.90;;;;;;6189279;28;20309;-73
2022/03/19 01:43:01;;;;;;;1.53;1.53;;;1.90;99.90;;;;;;6188638;28;20290;-74
2022/03/19 01:46:07;;;;;;;3.50;1.70;;;1.80;99.90;;;;;;6189492;28;20282;-74
2022/03/19 01:49:12;;;;;;;1.63;1.60;;;1.90;99.90;;;;;;6188644;28;20299;-73
2022/03/19 01:52:20;;;;;;;1.30;1.30;;;1.90;99.90;;;;;;6189150;28;20310;-74
2022/03/19 01:55:28;;;;;;;2.00;1.60;;;1.90;99.90;;;;;;6189344;28;20456;-74
2022/03/19 01:58:34;;;;;;;3.43;1.40;;;1.80;99.90;;;;;;6188265;28;20309;-74
2022/03/19 02:01:39;;;;;;;1.57;1.47;;;1.80;99.90;;;;;;6189569;28;20293;-74
2022/03/19 02:04:45;;;;;;;3.20;1.70;;;1.80;99.90;;;;;;6188339;28;20306;-74
2022/03/19 02:07:52;;;;;;;1.53;1.53;;;1.80;99.90;;;;;;6196156;28;20308;-74
2022/03/19 02:10:57;;;;;;;2.10;1.67;;;1.80;99.90;;;;;;6237173;28;20271;-74
2022/03/19 02:14:03;;;;;;;2.20;1.43;;;1.70;99.90;;;;;;6236943;28;20305;-74
2022/03/19 02:17:10;;;;;;;2.03;1.60;;;1.70;99.90;;;;;;6236801;28;20278;-74
2022/03/19 02:20:16;;;;;;;1.60;1.50;;;1.70;99.90;;;;;;6237473;28;20275;-74
2022/03/19 02:26:47;;;;;;;2.50;1.70;;;1.70;99.90;;;;;;6236553;28;20276;-73
2022/03/19 02:29:52;;;;;;;3.10;1.70;;;1.80;99.90;;;;;;6236666;28;20291;-73
2022/03/19 02:33:00;;;;;;;1.53;1.50;;;1.70;99.90;;;;;;6236682;28;20284;-73
2022/03/19 02:36:05;;;;;;;1.70;1.57;;;1.70;99.90;;;;;;6236992;28;20279;-73
2022/03/19 02:39:16;;;;;;;3.53;1.60;;;1.70;99.90;;;;;;6235764;28;20312;-73
2022/03/19 02:42:23;;;;;;;2.03;1.93;;;1.60;99.90;;;;;;6236471;28;20455;-74
2022/03/19 02:45:28;;;;;;;1.80;1.50;;;1.60;99.90;;;;;;6236837;28;20293;-73
2022/03/19 02:48:33;;;;;;;2.63;1.50;;;1.60;99.90;;;;;;6236177;28;20294;-74
2022/03/19 02:51:40;;;;;;;2.87;1.70;;;1.60;99.90;;;;;;6236748;28;20280;-74
2022/03/19 02:54:47;;;;;;;1.60;1.60;;;1.60;99.90;;;;;;6236429;28;20303;-73
2022/03/19 02:57:52;;;;;;;2.77;2.03;;;1.50;99.90;;;;;;6236039;28;20676;-73
2022/03/19 03:00:57;;;;;;;1.63;1.57;;;1.50;99.90;;;;;;6236896;28;20277;-73
2022/03/19 03:04:03;;;;;;;3.17;1.60;;;1.40;99.90;;;;;;6236222;28;20303;-73
2022/03/19 03:07:10;;;;;;;1.93;1.73;;;1.50;99.90;;;;;;6236224;28;20273;-74
2022/03/19 03:10:18;;;;;;;2.57;1.70;;;1.60;99.90;;;;;;6235912;28;20431;-73
2022/03/19 03:13:23;;;;;;;1.87;1.80;;;1.50;99.90;;;;;;6235854;28;20304;-73
2022/03/19 03:16:29;;;;;;;2.93;1.77;;;1.40;99.90;;;;;;6236449;28;20524;-73
2022/03/19 03:19:34;;;;;;;1.80;1.70;;;1.40;99.90;;;;;;6235708;28;20301;-73
2022/03/19 03:22:42;;;;;;;2.17;1.97;;;1.40;99.90;;;;;;6235699;28;20300;-73
2022/03/19 03:25:48;;;;;;;1.50;1.43;;;1.40;99.90;;;;;;6235869;28;20292;-73
2022/03/19 03:28:54;;;;;;;1.60;1.60;;;1.40;99.90;;;;;;6235906;28;20335;-73
2022/03/19 03:31:59;;;;;;;1.90;1.80;;;1.40;99.90;;;;;;6235711;28;20269;-74
2022/03/19 03:35:05;;;;;;;1.57;1.47;;;1.40;99.90;;;;;;6235757;28;20469;-73
2022/03/19 03:38:15;;;;;;;1.70;1.60;;;1.40;99.90;;;;;;6235847;28;20467;-74
2022/03/19 03:41:21;;;;;;;3.40;1.87;;;1.40;99.90;;;;;;6236531;28;20279;-73
2022/03/19 03:44:27;;;;;;;1.80;1.80;;;1.40;99.90;;;;;;6235507;28;20300;-73
2022/03/19 03:47:32;;;;;;;3.40;2.00;;;1.30;99.90;;;;;;6235594;28;20308;-74
2022/03/19 03:50:38;;;;;;;1.80;1.70;;;1.20;99.90;;;;;;6236998;28;20272;-74
2022/03/19 03:53:45;;;;;;;3.23;1.70;;;1.10;99.90;;;;;;6240073;28;20584;-73
2022/03/19 03:56:52;;;;;;;4.37;1.60;;;1.20;99.90;;;;;;6240879;28;20276;-73
2022/03/19 03:59:57;;;;;;;1.93;1.70;;;1.20;99.90;;;;;;6239735;28;20292;-73
2022/03/19 04:03:03;;;;;;;2.13;1.93;;;1.20;99.90;;;;;;6236982;28;20491;-73
2022/03/19 04:06:10;;;;;;;2.20;2.00;;;1.20;99.90;;;;;;6240162;28;20287;-73
2022/03/19 04:09:15;;;;;;;1.87;1.87;;;1.10;99.90;;;;;;6239695;28;20319;-73
2022/03/19 04:12:23;;;;;;;2.53;2.00;;;1.10;99.90;;;;;;6239577;28;20296;-74
2022/03/19 04:15:28;;;;;;;2.43;2.33;;;1.20;99.90;;;;;;6240058;28;20277;-74
2022/03/19 04:18:33;;;;;;;2.70;2.50;;;1.10;99.90;;;;;;6239195;28;20296;-73
2022/03/19 04:21:38;;;;;;;2.10;2.00;;;1.10;99.90;;;;;;6239548;28;20276;-73
2022/03/19 04:24:44;;;;;;;3.63;1.90;;;1.00;99.90;;;;;;6239742;28;20326;-74
2022/03/19 04:27:53;;;;;;;3.30;2.27;;;1.00;99.90;;;;;;6239181;28;20462;-73
2022/03/19 04:30:58;;;;;;;2.00;1.90;;;1.00;99.90;;;;;;6239882;28;20272;-73
2022/03/19 04:34:03;;;;;;;1.97;1.87;;;1.00;99.90;;;;;;6239007;28;20307;-73
2022/03/19 04:37:10;;;;;;;2.33;1.90;;;1.00;99.90;;;;;;6238916;28;20271;-74
2022/03/19 04:40:15;;;;;;;2.30;2.10;;;0.90;99.90;;;;;;6239839;28;20275;-73
2022/03/19 04:43:22;;;;;;;1.97;1.97;;;0.90;99.90;;;;;;6239001;28;20303;-73
2022/03/19 04:46:29;;;;;;;2.23;2.00;;;0.90;99.90;;;;;;6239040;28;20296;-73
2022/03/19 04:49:35;;;;;;;2.17;1.60;;;0.90;99.90;;;;;;6238901;28;20299;-73
2022/03/19 04:52:40;;;;;;;1.90;1.80;;;0.80;99.90;;;;;;6238790;28;20315;-74
2022/03/19 04:55:45;;;;;;;2.67;2.20;;;0.70;99.90;;;;;;6239306;28;20272;-74
2022/03/19 04:58:53;;;;;;;5.13;1.90;;;0.70;99.90;;;;;;6238505;28;20303;-73
2022/03/19 05:01:58;;;;;;;4.77;1.83;;;0.70;99.90;;;;;;6237706;28;20324;-74
2022/03/19 05:05:05;;;;;;;3.20;2.00;;;0.60;99.90;;;;;;6239107;28;20333;-73
2022/03/19 05:08:13;;;;;;;2.50;1.80;;;0.70;99.90;;;;;;6238193;28;20304;-73
2022/03/19 05:11:18;;;;;;;2.27;1.87;;;0.60;99.90;;;;;;6238336;28;20271;-73
2022/03/19 05:14:25;;;;;;;6.83;1.93;;;0.60;99.90;;;;;;6237790;28;20304;-73
2022/03/19 05:17:30;;;;;;;2.40;1.83;;;0.60;99.90;;;;;;6238091;28;20299;-73
2022/03/19 05:20:36;;;;;;;2.93;1.97;;;0.60;99.90;;;;;;6238133;28;20408;-73
2022/03/19 05:23:43;;;;;;;2.40;2.20;;;0.60;99.90;;;;;;6238045;28;20299;-73
2022/03/19 05:26:48;;;;;;;3.00;2.17;;;0.60;99.90;;;;;;6238373;28;20295;-73
2022/03/19 05:29:55;;;;;;;2.00;1.90;;;0.60;99.90;;;;;;6237726;28;20279;-73
2022/03/19 05:33:00;;;;;;;2.33;2.13;;;0.60;99.90;;;;;;6237705;28;20293;-73
2022/03/19 05:36:06;;;;;;;3.80;2.30;;;0.50;99.90;;;;;;6238309;28;20275;-73
2022/03/19 05:39:12;;;;;;;6.40;1.93;;;0.60;99.90;;;;;;6237460;28;20306;-73
2022/03/19 05:42:18;;;;;;;2.73;2.10;;;0.60;99.90;;;;;;6237281;28;20314;-74
2022/03/19 05:45:25;;;;;;;6.33;2.23;;;0.60;99.90;;;;;;6237526;28;20482;-73
2022/03/19 05:48:30;;;;;;;2.77;2.57;;;0.50;99.90;;;;;;6236362;28;20311;-73
2022/03/19 05:51:35;;;;;;;4.60;2.23;;;0.50;99.90;;;;;;6237610;28;20291;-73
2022/03/19 05:54:40;;;;;;;3.50;2.23;;;0.50;99.90;;;;;;6237132;28;20303;-73
2022/03/19 05:57:46;;;;;;;4.00;2.20;;;0.50;99.90;;;;;;6237555;28;20337;-73
2022/03/19 06:00:53;;;;;;;3.60;2.40;;;0.60;99.90;;;;;;6237634;28;20292;-72
2022/03/19 06:04:00;;;;;;;2.80;2.47;;;0.60;99.90;;;;;;6236836;28;20295;-73
2022/03/19 06:07:05;;;;;;;2.73;2.30;;;0.60;99.90;;;;;;6236552;28;20294;-73
2022/03/19 06:10:14;;;;;;;3.70;2.30;;;0.60;99.90;;;;;;6236971;28;20296;-73
2022/03/19 06:13:19;;;;;;;5.07;2.50;;;0.80;99.90;;;;;;6236730;28;20388;-73
2022/03/19 06:16:26;;;;;;;3.00;2.80;;;0.80;99.90;;;;;;6236887;28;20270;-73
2022/03/19 06:19:31;;;;;;;7.60;2.90;;;0.90;99.90;;;;;;6236818;28;20299;-73
2022/03/19 06:22:40;;;;;;;4.47;2.30;;;0.90;99.90;;;;;;6236471;28;20307;-73
2022/03/19 06:25:46;;;;;;;5.50;2.53;;;0.90;99.90;;;;;;6236729;28;20279;-73
2022/03/19 06:28:53;;;;;;;3.33;2.50;;;0.90;99.90;;;;;;6236804;28;20311;-73
2022/03/19 06:32:00;;;;;;;4.37;3.37;;;1.00;99.90;;;;;;6236903;28;20275;-73
2022/03/19 06:35:06;;;;;;;3.50;2.93;;;1.10;99.90;;;;;;6237305;28;20279;-74
2022/03/19 06:38:13;;;;;;;11.57;5.17;;;1.10;99.90;;;;;;6236613;28;20299;-73
2022/03/19 06:41:18;;;;;;;22.70;8.43;;;1.20;99.90;;;;;;6236598;28;20271;-73
2022/03/19 06:44:23;;;;;;;19.50;7.30;;;1.20;99.90;;;;;;6236013;28;20299;-74
2022/03/19 06:47:31;;;;;;;14.23;7.23;;;1.30;99.90;;;;;;6235865;28;20300;-73
2022/03/19 06:50:36;;;;;;;12.87;6.13;;;1.40;99.90;;;;;;6236860;28;20586;-72
2022/03/19 06:53:42;;;;;;;12.43;5.83;;;1.50;99.90;;;;;;6236233;28;20303;-74
2022/03/19 06:56:47;;;;;;;13.70;5.83;;;1.60;99.90;;;;;;6236827;28;20564;-73
2022/03/19 06:59:53;;;;;;;17.50;5.60;;;1.70;99.90;;;;;;6236053;28;20542;-73
2022/03/19 07:02:59;;;;;;;16.47;6.07;;;1.80;99.90;;;;;;6235402;28;20375;-73
2022/03/19 07:06:05;;;;;;;14.87;5.90;;;1.90;99.90;;;;;;6236602;28;20396;-73
2022/03/19 07:09:30;;;;;;;12.33;5.47;;;2.00;99.90;;;;;;6236221;28;20324;-74
2022/03/19 07:12:43;;;;;;;4.43;3.20;;;2.10;99.90;;;;;;6236659;28;20543;-73
2022/03/19 07:15:48;;;;;;;4.30;2.37;;;2.10;99.90;;;;;;6236145;28;20272;-73
2022/03/19 07:18:55;;;;;;;4.33;2.67;;;2.30;99.90;;;;;;6235826;28;20303;-73
2022/03/19 07:22:00;;;;;;;6.73;2.30;;;2.30;99.90;;;;;;6235851;28;20273;-73
2022/03/19 07:25:07;;;;;;;3.77;2.37;;;2.40;99.90;;;;;;6237145;28;20277;-73
2022/03/19 07:28:17;;;;;;;3.77;1.97;;;2.40;99.90;;;;;;6240865;28;20301;-74
2022/03/19 07:31:23;;;;;;;2.23;2.13;;;2.50;99.90;;;;;;6240876;28;20279;-73
2022/03/19 07:34:29;;;;;;;4.40;2.20;;;2.50;99.90;;;;;;6240850;28;20297;-73
2022/03/19 07:37:37;;;;;;;3.03;2.47;;;2.50;99.90;;;;;;6240521;28;20295;-73
2022/03/19 07:44:06;;;;;;;2.73;2.53;;;2.70;99.90;;;;;;6240372;28;20698;-73
2022/03/19 07:47:12;;;;;;;4.13;2.60;;;2.70;99.90;;;;;;6239886;28;20306;-73
2022/03/19 07:50:20;;;;;;;2.67;2.30;;;2.70;99.90;;;;;;6240725;28;20579;-73
2022/03/19 07:53:26;;;;;;;4.53;2.37;;;2.80;99.90;;;;;;6239998;28;20316;-73
2022/03/19 07:56:31;;;;;;;4.97;2.27;;;2.90;99.90;;;;;;6240548;28;20279;-73
2022/03/19 07:59:37;;;;;;;2.60;2.40;;;2.90;99.90;;;;;;6239683;28;20298;-72
2022/03/19 08:02:43;;;;;;;10.23;2.50;;;2.90;99.90;;;;;;6239622;28;20290;-72
2022/03/19 08:05:49;;;;;;;5.57;2.23;;;3.10;99.90;;;;;;6240192;28;20277;-73
2022/03/19 08:08:55;;;;;;;6.20;2.80;;;3.20;99.90;;;;;;6239684;28;20484;-73
2022/03/19 08:12:00;;;;;;;4.97;2.23;;;3.40;99.90;;;;;;6239010;28;20267;-74
2022/03/19 08:15:10;;;;;;;4.67;2.17;;;3.30;99.90;;;;;;6239483;28;20269;-73
2022/03/19 08:18:20;;;;;;;3.60;2.07;;;3.50;99.90;;;;;;6239460;28;20312;-73
2022/03/19 08:21:27;;;;;;;3.80;2.00;;;3.60;99.90;;;;;;6239493;28;20274;-73
2022/03/19 08:24:33;;;;;;;4.63;1.80;;;3.70;99.90;;;;;;6239453;28;20589;-73
2022/03/19 08:27:38;;;;;;;5.53;2.23;;;3.70;99.90;;;;;;6239149;28;20585;-73
2022/03/19 08:30:43;;;;;;;5.60;1.90;;;3.80;99.90;;;;;;6239489;28;20330;-73
2022/03/19 08:33:49;;;;;;;6.33;1.97;;;4.10;99.90;;;;;;6238703;28;20303;-73
2022/03/19 08:36:56;;;;;;;6.43;2.00;;;4.20;99.90;;;;;;6237838;28;20296;-73
2022/03/19 08:40:18;;;;;;;5.70;2.27;;;4.20;99.90;;;;;;6239357;28;20275;-74
2022/03/19 08:43:24;;;;;;;7.83;2.03;;;4.30;99.90;;;;;;6237910;28;20303;-73
2022/03/19 08:46:30;;;;;;;4.27;2.00;;;4.50;99.90;;;;;;6239110;28;20454;-74
2022/03/19 08:49:35;;;;;;;5.27;2.13;;;4.50;99.90;;;;;;6238985;28;20306;-74
2022/03/19 08:52:42;;;;;;;8.73;1.90;;;4.60;99.90;;;;;;6238896;28;20316;-74
2022/03/19 08:55:47;;;;;;;6.27;2.10;;;4.60;99.90;;;;;;6239315;28;20275;-74
2022/03/19 08:58:53;;;;;;;7.83;1.93;;;4.70;99.90;;;;;;6238514;28;20299;-75
2022/03/19 09:01:59;;;;;;;10.20;1.80;;;4.60;99.90;;;;;;6237912;28;20279;-76
2022/03/19 09:05:06;;;;;;;16.37;1.83;;;4.90;99.90;;;;;;6238973;28;20275;-74
2022/03/19 09:08:17;;;;;;;6.37;1.67;;;5.10;99.90;;;;;;6230718;28;20662;-75
2022/03/19 09:11:23;;;;;;;7.53;2.10;;;5.00;99.90;;;;;;6198957;28;20333;-77
2022/03/19 09:14:29;;;;;;;7.10;1.43;;;4.90;99.90;;;;;;6189867;28;20298;-74
2022/03/19 09:17:34;;;;;;;9.57;2.20;;;5.10;99.90;;;;;;6189360;28;20579;-75
2022/03/19 09:20:40;;;;;;;2.00;1.30;;;5.30;99.90;;;;;;6190193;28;20261;-75
2022/03/19 09:23:49;;;;;;;2.27;1.23;;;5.40;99.90;;;;;;6189306;28;20302;-74
2022/03/19 09:26:54;;;;;;;8.37;1.63;;;5.40;99.90;;;;;;6188861;28;20290;-76
2022/03/19 09:29:59;;;;;;;7.97;1.80;;;5.50;99.90;;;;;;6189565;28;20466;-75
2022/03/19 09:33:06;;;;;;;10.47;1.97;;;5.40;99.90;;;;;;6189353;28;20301;-75
2022/03/19 09:36:21;;;;;;;3.70;1.73;;;5.60;99.90;;;;;;6189033;28;20270;-74
2022/03/19 09:39:28;;;;;;;3.10;1.30;;;5.90;99.80;;;;;;6189670;28;20301;-75
2022/03/19 09:42:33;;;;;;;4.80;1.23;;;6.00;99.30;;;;;;6189282;28;20317;-75
2022/03/19 09:45:39;;;;;;;3.47;1.53;;;5.90;99.10;;;;;;6189680;28;20276;-75
2022/03/19 09:48:44;;;;;;;2.50;1.33;;;6.10;98.70;;;;;;6188846;28;20299;-75
2022/03/19 09:51:54;;;;;;;3.93;1.93;;;6.00;99.00;;;;;;6189157;28;20325;-75
2022/03/19 09:55:01;;;;;;;4.83;1.53;;;6.10;98.30;;;;;;6188672;28;20286;-73
2022/03/19 09:58:07;;;;;;;3.43;1.50;;;6.10;98.70;;;;;;6188504;28;20337;-71
2022/03/19 10:01:13;;;;;;;3.27;1.47;;;6.20;97.60;;;;;;6188816;28;20280;-76
2022/03/19 10:04:20;;;;;;;2.80;1.33;;;6.60;96.00;;;;;;6189969;28;20315;-76
2022/03/19 10:10:50;;;;;;;8.60;1.10;;;6.70;94.80;;;;;;6238335;28;20287;-73
2022/03/19 10:13:55;;;;;;;4.57;1.40;;;6.80;94.50;;;;;;6237292;28;20476;-75
2022/03/19 10:17:02;;;;;;;6.03;1.93;;;6.70;94.30;;;;;;6237384;28;20275;-76
2022/03/19 10:20:10;;;;;;;1.00;1.00;;;7.00;94.00;;;;;;6237285;28;20311;-76
2022/03/19 10:23:34;;;;;;;2.80;1.40;;;6.90;94.30;;;;;;6236567;28;20303;-76
2022/03/19 10:26:41;;;;;;;6.87;1.57;;;7.00;94.00;;;;;;6236887;28;20272;-76
2022/03/19 10:29:46;;;;;;;7.60;1.33;;;7.00;93.70;;;;;;6236328;28;20479;-76
2022/03/19 10:32:54;;;;;;;9.60;1.90;;;7.20;93.30;;;;;;6236381;28;20475;-76
2022/03/19 10:36:07;;;;;;;2.50;1.30;;;7.20;92.90;;;;;;6237711;28;20291;-76
2022/03/19 10:39:21;;;;;;;2.67;1.60;;;7.20;93.60;;;;;;6236649;28;20348;-76
2022/03/19 10:42:37;;;;;;;3.63;1.13;;;7.40;91.30;;;;;;6236370;28;20311;-76
2022/03/19 10:45:44;;;;;;;2.60;1.40;;;7.60;90.20;;;;;;6237027;28;20276;-76
2022/03/19 10:48:52;;;;;;;1.40;1.30;;;7.70;90.90;;;;;;6236194;28;20300;-75
2022/03/19 10:52:02;;;;;;;4.57;1.40;;;7.80;90.30;;;;;;6235798;28;20292;-76
2022/03/19 10:55:10;;;;;;;6.47;1.23;;;7.80;89.50;;;;;;6236866;28;20277;-76
2022/03/19 10:58:16;;;;;;;0.93;0.93;;;7.90;84.30;;;;;;6236325;28;20292;-77
2022/03/19 11:01:42;;;;;;;2.30;1.30;;;8.10;77.90;;;;;;6237345;28;20272;-77
2022/03/19 11:04:51;;;;;;;2.17;1.00;;;8.20;75.30;;;;;;6226493;28;20292;-76
2022/03/19 11:07:58;;;;;;;1.57;1.00;;;8.20;74.40;;;;;;6236276;28;20316;-77
2022/03/19 11:11:07;;;;;;;2.30;1.27;;;8.50;67.70;;;;;;6236516;28;20284;-76
2022/03/19 11:14:19;;;;;;;6.13;1.30;;;8.40;69.00;;;;;;6236281;28;20995;-77
2022/03/19 11:17:30;;;;;;;9.15;1.33;;;8.30;70.80;;;;;;6218481;28;20481;-76
2022/03/19 11:20:36;;;;;;;2.17;1.20;;;8.40;66.20;;;;;;6236763;28;20276;-78
2022/03/19 11:23:51;;;;;;;2.45;1.00;;;8.60;64.10;;;;;;6236331;28;20295;-76
2022/03/19 11:26:58;;;;;;;3.53;1.20;;;8.80;62.10;;;;;;6235485;28;20269;-77
2022/03/19 11:30:07;;;;;;;3.00;1.13;;;8.80;61.20;;;;;;6236866;28;20516;-77
2022/03/19 11:33:18;;;;;;;3.40;1.08;;;8.80;62.70;;;;;;6235588;28;20300;-77
2022/03/19 11:36:24;;;;;;;2.65;1.10;;;8.70;60.90;;;;;;6235334;28;20454;-76
2022/03/19 11:39:30;;;;;;;3.13;1.00;;;8.80;59.50;;;;;;6236365;28;20288;-77
2022/03/19 11:42:35;;;;;;;4.53;1.30;;;8.90;58.30;;;;;;6235815;28;20297;-77
2022/03/19 11:45:54;;;;;;;4.28;1.25;;;9.00;58.80;;;;;;6235750;28;20272;-77
2022/03/19 11:48:59;;;;;;;1.20;1.00;;;9.30;55.90;;;;;;6235094;28;20368;-77
2022/03/19 11:52:06;;;;;;;1.17;1.05;;;9.30;53.70;;;;;;6235535;28;20293;-78
2022/03/19 11:55:13;;;;;;;5.13;1.05;;;9.30;54.20;;;;;;6236193;28;20269;-78
2022/03/19 11:58:27;;;;;;;3.70;1.23;;;9.30;53.60;;;;;;6235929;28;20300;-77
2022/03/19 12:01:54;;;;;;;6.32;1.00;;;9.30;53.80;;;;;;6235386;28;20567;-77
2022/03/19 12:05:17;;;;;;;4.40;0.95;;;9.20;55.90;;;;;;6234769;28;20280;-77
2022/03/19 12:08:26;;;;;;;3.30;1.08;;;9.70;53.20;;;;;;6235362;28;20309;-77
2022/03/19 12:11:32;;;;;;;1.85;1.10;;;9.60;53.00;;;;;;6235793;28;20264;-77
2022/03/19 12:14:39;;;;;;;4.45;1.20;;;9.70;52.40;;;;;;6240027;28;20324;-77
2022/03/19 12:17:46;;;;;;;0.93;0.90;;;9.60;53.20;;;;;;6239999;28;20292;-77
2022/03/19 12:20:53;;;;;;;6.13;1.55;;;9.50;54.10;;;;;;6240166;28;20268;-77
2022/03/19 12:24:19;;;;;;;8.00;1.15;;;9.50;55.60;;;;;;6239629;28;20591;-77
2022/03/19 12:27:25;;;;;;;3.90;1.15;;;9.40;55.60;;;;;;6238944;28;20292;-77
2022/03/19 12:30:30;;;;;;;4.68;1.20;;;9.60;54.40;;;;;;6239568;28;20276;-73
2022/03/19 12:33:38;;;;;;;1.63;1.23;;;9.70;52.90;;;;;;6238861;28;20297;-76
2022/03/19 12:36:43;;;;;;;1.63;1.30;;;9.90;52.60;;;;;;6239238;28;20583;-77
2022/03/19 12:39:59;;;;;;;3.95;1.10;;;10.00;52.00;;;;;;6239161;28;20296;-78
2022/03/19 12:43:05;;;;;;;3.47;1.20;;;9.90;51.80;;;;;;6239386;28;20296;-77
2022/03/19 12:46:24;;;;;;;1.02;0.88;;;9.80;53.00;;;;;;6239048;28;20285;-78
2022/03/19 12:49:31;;;;;;;4.00;0.90;;;10.10;51.50;;;;;;6240662;28;20301;-77
2022/03/19 12:52:44;;;;;;;4.05;1.23;;;10.00;52.00;;;;;;6240287;28;20300;-78
2022/03/19 12:55:49;;;;;;;2.92;1.25;;;10.20;51.30;;;;;;6241366;28;20272;-78
2022/03/19 12:58:58;;;;;;;5.90;1.25;;;10.20;52.10;;;;;;6240633;28;20292;-79
2022/03/19 13:02:04;;;;;;;1.38;1.05;;;10.10;52.10;;;;;;6239861;28;20276;-77
2022/03/19 13:05:14;;;;;;;7.30;1.33;;;10.20;51.50;;;;;;6238677;28;20479;-76
2022/03/19 13:08:20;;;;;;;4.90;1.27;;;10.20;51.90;;;;;;6231909;28;20317;-79
2022/03/19 13:11:26;;;;;;;8.35;1.40;;;10.20;53.10;;;;;;6203329;28;20306;-78
2022/03/19 13:14:32;;;;;;;6.03;1.13;;;10.10;53.20;;;;;;6193558;28;20306;-81
2022/03/19 13:17:38;;;;;;;3.05;1.10;;;10.20;53.00;;;;;;6191135;28;20294;-81
2022/03/19 13:21:00;;;;;;;2.47;1.25;;;10.20;52.70;;;;;;6208716;28;20278;-81
2022/03/19 13:24:11;;;;;;;1.73;1.27;;;10.10;53.60;;;;;;6188747;28;20314;-76
2022/03/19 13:27:16;;;;;;;6.93;1.65;;;10.10;53.00;;;;;;6189311;28;20298;-76
2022/03/19 13:30:21;;;;;;;2.25;1.20;;;10.20;53.30;;;;;;6189749;28;20274;-76
2022/03/19 13:33:29;;;;;;;4.75;1.17;;;10.10;53.50;;;;;;6188917;28;20305;-76
2022/03/19 13:36:36;;;;;;;3.17;1.23;;;10.20;53.80;;;;;;6189616;28;20274;-76
2022/03/19 13:39:46;;;;;;;2.53;1.10;;;10.20;54.10;;;;;;6190127;28;20474;-75
2022/03/19 13:42:52;;;;;;;8.07;1.40;;;10.20;53.80;;;;;;6190201;28;20297;-77
2022/03/19 13:46:11;;;;;;;3.90;1.40;;;10.40;53.80;;;;;;6189658;28;20273;-77
2022/03/19 13:49:17;;;;;;;1.20;1.10;;;10.50;53.20;;;;;;6188535;28;20461;-76
2022/03/19 13:52:35;;;;;;;2.80;1.33;;;10.40;53.10;;;;;;6188479;28;20301;-76
2022/03/19 13:55:42;;;;;;;1.70;1.27;;;11.00;52.20;;;;;;6189617;28;20273;-76
2022/03/19 13:59:00;;;;;;;8.77;1.50;;;11.30;51.50;;;;;;6188633;28;20305;-76
2022/03/19 14:02:06;;;;;;;4.07;1.38;;;11.60;50.90;;;;;;6188318;28;20561;-77
2022/03/19 14:05:12;;;;;;;2.95;1.30;;;11.30;51.30;;;;;;6188804;28;20277;-76
2022/03/19 14:08:21;;;;;;;3.65;1.23;;;11.10;50.70;;;;;;6202551;28;20305;-76
2022/03/19 14:11:38;;;;;;;6.30;1.27;;;10.90;51.70;;;;;;6237132;28;20265;-77
2022/03/19 14:14:43;;;;;;;2.80;1.20;;;10.70;52.10;;;;;;6236964;28;20304;-76
2022/03/19 14:17:54;;;;;;;1.23;1.02;;;10.60;52.60;;;;;;6236684;28;20296;-76
2022/03/19 14:21:02;;;;;;;3.92;1.50;;;10.50;53.20;;;;;;6237133;28;20272;-75
2022/03/19 14:24:09;;;;;;;8.45;1.30;;;10.50;53.60;;;;;;6237269;28;20308;-75
2022/03/19 14:27:14;;;;;;;6.30;1.38;;;10.80;52.60;;;;;;6236281;28;20296;-76
2022/03/19 14:30:20;;;;;;;3.38;1.25;;;11.00;51.80;;;;;;6237143;28;20277;-76
2022/03/19 14:33:25;;;;;;;2.53;1.00;;;11.00;51.10;;;;;;6236416;28;20304;-76
2022/03/19 14:36:31;;;;;;;1.23;1.10;;;11.00;50.40;;;;;;6235933;28;20285;-76
2022/03/19 14:39:37;;;;;;;3.53;1.10;;;11.60;48.80;;;;;;6236707;28;20300;-75
2022/03/19 14:42:43;;;;;;;2.72;1.10;;;11.60;47.90;;;;;;6236027;28;20297;-75
2022/03/19 14:45:50;;;;;;;7.95;1.60;;;11.10;49.80;;;;;;6237055;28;20296;-77
2022/03/19 14:48:56;;;;;;;6.00;1.00;;;10.80;50.50;;;;;;6236330;28;20300;-75
2022/03/19 14:52:01;;;;;;;1.48;1.00;;;10.60;51.20;;;;;;6236101;28;20277;-77
2022/03/19 14:55:10;;;;;;;0.90;0.90;;;10.50;51.20;;;;;;6220892;28;20285;-76
2022/03/19 14:58:17;;;;;;;1.80;1.00;;;10.40;51.70;;;;;;6239129;28;20296;-78
2022/03/19 15:01:22;;;;;;;2.05;1.27;;;10.20;52.30;;;;;;6240649;28;20272;-75
2022/03/19 15:04:28;;;;;;;2.80;1.10;;;10.20;52.80;;;;;;6236146;28;20292;-76
2022/03/19 15:07:53;;;;;;;4.05;1.60;;;10.20;52.40;;;;;;6235992;28;20304;-77
2022/03/19 15:10:59;;;;;;;1.00;1.00;;;10.20;52.70;;;;;;6236212;28;20500;-77
2022/03/19 15:14:05;;;;;;;3.08;1.00;;;10.30;52.20;;;;;;6235942;28;20300;-77
2022/03/19 15:17:11;;;;;;;2.17;1.00;;;10.30;52.50;;;;;;6235870;28;20448;-77
2022/03/19 15:20:16;;;;;;;5.35;1.10;;;10.20;53.40;;;;;;6236133;28;20272;-78
2022/03/19 15:23:23;;;;;;;1.83;1.10;;;10.10;53.40;;;;;;6236182;28;20552;-77
2022/03/19 15:26:30;;;;;;;3.45;1.17;;;10.10;54.20;;;;;;6236065;28;20450;-76
2022/03/19 15:29:35;;;;;;;2.75;1.00;;;10.00;54.80;;;;;;6235579;28;20591;-77
2022/03/19 15:32:41;;;;;;;1.15;1.00;;;9.90;54.80;;;;;;6235871;28;20292;-77
2022/03/19 15:35:46;;;;;;;5.25;1.20;;;9.80;56.70;;;;;;6236260;28;20292;-76
2022/03/19 15:38:52;;;;;;;1.58;1.10;;;9.80;55.80;;;;;;6235787;28;20299;-77
2022/03/19 15:41:59;;;;;;;1.17;1.00;;;9.70;56.20;;;;;;6235348;28;20441;-77
2022/03/19 15:45:06;;;;;;;3.20;1.17;;;9.90;55.50;;;;;;6236370;28;20354;-77
2022/03/19 15:48:16;;;;;;;1.75;1.35;;;9.80;56.50;;;;;;6239380;28;20292;-77
2022/03/19 15:51:21;;;;;;;5.15;1.13;;;9.70;57.40;;;;;;6222998;28;20272;-77
2022/03/19 15:54:27;;;;;;;4.57;1.30;;;9.60;57.70;;;;;;6240432;28;20295;-77
2022/03/19 15:57:34;;;;;;;4.53;1.20;;;9.60;58.20;;;;;;6240609;28;20284;-76
2022/03/19 16:00:39;;;;;;;2.45;0.93;;;9.70;57.50;;;;;;6240359;28;20288;-77
2022/03/19 16:03:44;;;;;;;5.90;1.40;;;9.70;58.00;;;;;;6239629;28;20296;-77
2022/03/19 16:06:50;;;;;;;3.70;1.60;;;9.40;61.00;;;;;;6240024;28;20272;-76
2022/03/19 16:09:55;;;;;;;1.50;1.15;;;9.20;66.50;;;;;;6239015;28;20292;-76
2022/03/19 16:13:02;;;;;;;2.35;1.25;;;9.40;60.60;;;;;;6240120;28;20297;-75
2022/03/19 16:16:07;;;;;;;1.75;1.20;;;9.30;62.50;;;;;;6240578;28;20289;-76
2022/03/19 16:19:12;;;;;;;1.83;1.02;;;9.50;60.30;;;;;;6239701;28;20292;-76
2022/03/19 16:22:19;;;;;;;5.68;1.40;;;9.30;61.30;;;;;;6239771;28;20292;-76
2022/03/19 16:25:25;;;;;;;3.30;1.40;;;9.10;68.10;;;;;;6238975;28;20268;-76
2022/03/19 16:28:31;;;;;;;5.53;1.33;;;8.90;68.70;;;;;;6239660;28;20316;-75
2022/03/19 16:31:37;;;;;;;5.50;1.40;;;8.90;70.00;;;;;;6240015;28;20272;-77
2022/03/19 16:34:42;;;;;;;10.10;1.60;;;8.80;69.60;;;;;;6238987;28;20293;-76